Time;durP1;ratioP1;P1;durP2;ratioP2;P2;SDS_P1;SDS_P2;PMS_P1;PMS_P2;Temp;Humidity;BMP_temperature;BMP_pressure;BME280_temperature;BME280_humidity;BME280_pressure;Samples;Min_cycle;Max_cycle;Signal;HPM_P1;HPM_P2
2021/08/06 00:00:31;;;;;;;1.90;1.80;;;;;;;22.81;100.00;96683.31;5050746;28;20296;-65
2021/08/06 00:02:58;;;;;;;2.27;2.07;;;;;;;22.94;100.00;96718.47;5050152;28;20231;-65
2021/08/06 00:05:25;;;;;;;2.20;2.00;;;;;;;22.92;100.00;96715.03;5049084;28;20250;-66
2021/08/06 00:07:51;;;;;;;2.93;2.07;;;;;;;22.91;100.00;96721.00;5049885;28;20312;-65
2021/08/06 00:10:18;;;;;;;2.20;2.00;;;;;;;22.88;100.00;96709.00;5045488;28;20746;-65
2021/08/06 00:12:44;;;;;;;4.37;2.20;;;;;;;22.20;100.00;96596.38;5042977;28;20279;-66
2021/08/06 00:15:11;;;;;;;2.73;1.87;;;;;;;22.88;100.00;96710.72;5047915;28;20302;-67
2021/08/06 00:17:37;;;;;;;2.93;1.90;;;;;;;22.87;100.00;96715.00;5050556;28;20296;-65
2021/08/06 00:20:05;;;;;;;2.30;2.03;;;;;;;22.54;100.00;96665.94;5047156;28;20287;-65
2021/08/06 00:22:32;;;;;;;2.80;2.10;;;;;;;22.73;100.00;96688.34;5048597;28;20658;-65
2021/08/06 00:24:58;;;;;;;1.70;1.60;;;;;;;22.90;100.00;96715.03;5042365;28;20284;-64
2021/08/06 00:27:25;;;;;;;2.27;1.97;;;;;;;22.91;100.00;96719.31;5043184;28;20245;-65
2021/08/06 00:29:52;;;;;;;2.13;1.93;;;;;;;22.92;100.00;96715.03;5044817;28;20742;-66
2021/08/06 00:32:19;;;;;;;2.40;2.10;;;;;;;22.94;100.00;96723.59;5049987;28;20228;-65
2021/08/06 00:34:45;;;;;;;2.43;2.00;;;;;;;22.94;100.00;96714.22;5048950;28;20289;-65
2021/08/06 00:37:12;;;;;;;2.30;2.10;;;;;;;22.76;100.00;96684.94;5046210;28;20252;-66
2021/08/06 00:39:38;;;;;;;2.10;1.90;;;;;;;22.97;100.00;96718.50;5043488;28;20468;-65
2021/08/06 00:42:05;;;;;;;2.00;1.80;;;;;;;22.30;100.00;96598.19;5045708;28;20247;-64
2021/08/06 00:44:31;;;;;;;1.97;1.83;;;;;;;22.98;100.00;96713.38;5041598;28;20248;-65
2021/08/06 00:46:58;;;;;;;2.73;2.10;;;;;;;22.99;100.00;96707.44;5049043;28;20308;-64
2021/08/06 00:49:24;;;;;;;2.57;1.83;;;;;;;22.93;100.00;96689.44;5048410;28;20287;-66
2021/08/06 00:51:51;;;;;;;2.17;2.00;;;;;;;22.98;100.00;96704.88;5043308;28;20231;-65
2021/08/06 00:54:18;;;;;;;2.60;1.87;;;;;;;22.97;100.00;96705.69;5027610;28;20208;-65
2021/08/06 00:56:48;;;;;;;2.03;1.87;;;;;;;22.95;100.00;96699.69;5030934;28;20304;-65
2021/08/06 00:59:14;;;;;;;2.80;2.10;;;;;;;22.85;100.00;96695.31;5046101;28;20686;-65
2021/08/06 01:01:41;;;;;;;3.23;2.10;;;;;;;22.76;100.00;96680.69;5043641;28;20295;-64
2021/08/06 01:04:13;;;;;;;2.10;1.90;;;;;;;22.76;100.00;96678.13;5030809;28;20197;-65
2021/08/06 01:06:46;;;;;;;1.90;1.80;;;;;;;22.89;100.00;96703.03;5030615;28;20750;-65
2021/08/06 01:09:40;;;;;;;2.97;1.80;;;;;;;22.88;100.00;96718.41;5043196;28;20288;-65
2021/08/06 01:12:09;;;;;;;3.10;1.93;;;;;;;22.86;100.00;96705.56;5039993;28;20232;-65
2021/08/06 01:14:37;;;;;;;2.50;1.97;;;;;;;22.86;100.00;96707.28;5045747;28;20745;-65
2021/08/06 01:17:04;;;;;;;2.27;1.90;;;;;;;22.86;100.00;96703.00;5049645;28;20312;-64
2021/08/06 01:19:38;;;;;;;2.97;1.80;;;;;;;22.86;100.00;96700.44;5027765;28;20502;-65
2021/08/06 01:22:16;;;;;;;1.73;1.63;;;;;;;22.87;100.00;96691.06;5042419;28;20200;-66
2021/08/06 01:24:43;;;;;;;2.00;1.87;;;;;;;22.84;100.00;96686.78;5043807;28;20243;-63
2021/08/06 01:27:10;;;;;;;2.03;1.83;;;;;;;22.89;100.00;96690.22;5027635;28;20218;-65
2021/08/06 01:29:37;;;;;;;2.10;1.90;;;;;;;22.91;100.00;96687.69;5042131;28;20233;-65
2021/08/06 01:32:03;;;;;;;1.80;1.70;;;;;;;22.92;100.00;96682.56;5045155;28;20201;-65
2021/08/06 01:34:30;;;;;;;2.07;1.90;;;;;;;22.93;100.00;96678.31;5045750;28;20629;-65
2021/08/06 01:36:56;;;;;;;1.63;1.53;;;;;;;22.93;100.00;96684.31;5042264;28;20710;-65
2021/08/06 01:39:23;;;;;;;2.73;1.80;;;;;;;22.93;100.00;96679.19;5043699;28;20330;-65
2021/08/06 01:42:03;;;;;;;1.73;1.63;;;;;;;22.96;100.00;96680.91;5044254;28;20641;-65
2021/08/06 01:44:43;;;;;;;3.50;2.00;;;;;;;22.81;100.00;96642.31;5048225;28;20208;-64
2021/08/06 01:47:13;;;;;;;2.17;1.97;;;;;;;22.97;100.00;96669.81;5043675;28;20339;-65
2021/08/06 01:49:47;;;;;;;2.23;1.93;;;;;;;22.81;100.00;96645.75;5042436;28;20225;-64
2021/08/06 01:52:15;;;;;;;1.80;1.70;;;;;;;22.63;100.00;96616.53;5027596;28;20289;-65
2021/08/06 01:54:42;;;;;;;1.93;1.73;;;;;;;22.94;100.00;96678.34;5047764;28;20674;-64
2021/08/06 01:57:08;;;;;;;2.47;1.70;;;;;;;22.93;100.00;96673.19;5028604;28;20311;-64
2021/08/06 01:59:35;;;;;;;4.17;2.03;;;;;;;22.91;100.00;96675.75;5039193;28;20284;-65
2021/08/06 02:02:02;;;;;;;2.33;1.90;;;;;;;22.90;100.00;96668.03;5042774;28;20235;-65
2021/08/06 02:04:28;;;;;;;2.47;1.80;;;;;;;22.89;100.00;96668.91;5042503;28;20237;-65
2021/08/06 02:06:55;;;;;;;1.93;1.83;;;;;;;22.88;100.00;96664.59;5046183;28;20671;-65
2021/08/06 02:09:22;;;;;;;2.40;1.90;;;;;;;22.86;100.00;96666.28;5043014;28;20224;-65
2021/08/06 02:11:49;;;;;;;1.97;1.77;;;;;;;22.73;100.00;96646.50;5042625;28;20228;-64
2021/08/06 02:14:17;;;;;;;2.70;1.73;;;;;;;22.84;100.00;96657.72;5045274;28;20236;-66
2021/08/06 02:16:43;;;;;;;1.93;1.80;;;;;;;22.64;100.00;96631.91;5042036;28;20749;-65
2021/08/06 02:19:12;;;;;;;1.90;1.80;;;;;;;22.86;100.00;96668.88;5030924;28;20292;-64
2021/08/06 02:21:38;;;;;;;1.80;1.70;;;;;;;22.70;100.00;96641.34;5047321;28;20288;-65
2021/08/06 02:24:07;;;;;;;1.93;1.73;;;;;;;22.88;100.00;96667.16;5034546;28;20233;-65
2021/08/06 02:26:34;;;;;;;1.97;1.77;;;;;;;22.89;100.00;96677.41;5047095;28;20308;-65
2021/08/06 02:29:06;;;;;;;2.10;1.90;;;;;;;22.90;100.00;96675.72;5046415;28;20236;-65
2021/08/06 02:31:33;;;;;;;2.17;1.97;;;;;;;22.91;100.00;96662.94;5034812;28;20225;-65
2021/08/06 02:34:00;;;;;;;1.67;1.57;;;;;;;22.91;100.00;96657.81;5046326;28;20197;-65
2021/08/06 02:36:26;;;;;;;1.80;1.70;;;;;;;22.93;100.00;96653.56;5049217;28;20252;-64
2021/08/06 02:38:57;;;;;;;1.80;1.70;;;;;;;22.37;100.00;96551.31;5133928;22;20288;-66
2021/08/06 02:41:23;;;;;;;1.87;1.77;;;;;;;22.95;100.00;96656.16;5008958;28;20288;-67
2021/08/06 02:43:50;;;;;;;2.10;1.90;;;;;;;22.87;100.00;96645.81;5024650;28;20201;-68
2021/08/06 02:46:17;;;;;;;1.87;1.77;;;;;;;22.09;100.00;96504.13;5014768;28;20667;-67
2021/08/06 02:48:43;;;;;;;1.70;1.60;;;;;;;22.88;100.00;96637.28;4998804;28;20223;-67
2021/08/06 02:51:10;;;;;;;1.83;1.53;;;;;;;22.95;100.00;96651.03;4996850;28;20297;-67
2021/08/06 02:53:36;;;;;;;1.93;1.80;;;;;;;22.44;100.00;96561.66;5025957;28;20229;-66
2021/08/06 02:56:03;;;;;;;1.80;1.70;;;;;;;22.91;100.00;96655.25;5010424;28;20278;-67
2021/08/06 02:58:30;;;;;;;1.80;1.70;;;;;;;21.89;100.00;96491.94;5019009;28;20245;-66
2021/08/06 03:00:56;;;;;;;1.80;1.70;;;;;;;22.65;100.00;96608.00;5012147;28;20294;-67
2021/08/06 03:03:23;;;;;;;3.07;1.60;;;;;;;22.78;100.00;96638.03;5015806;28;20205;-68
2021/08/06 03:05:50;;;;;;;1.70;1.60;;;;;;;22.87;100.00;96655.19;5014987;28;20271;-68
2021/08/06 03:08:16;;;;;;;2.30;1.70;;;;;;;22.85;100.00;96654.31;5013887;28;20226;-67
2021/08/06 03:10:43;;;;;;;2.43;1.57;;;;;;;22.84;100.00;96652.59;5029969;28;20289;-68
2021/08/06 03:13:09;;;;;;;2.23;1.60;;;;;;;22.73;100.00;96629.44;5025291;28;20252;-68
2021/08/06 03:15:36;;;;;;;1.60;1.50;;;;;;;22.49;100.00;96595.84;5028636;28;20217;-67
2021/08/06 03:18:03;;;;;;;1.70;1.60;;;;;;;22.79;100.00;96655.13;5022865;28;20269;-68
2021/08/06 03:20:29;;;;;;;1.70;1.60;;;;;;;22.33;100.00;96577.75;5027643;28;20639;-68
2021/08/06 03:22:56;;;;;;;1.70;1.60;;;;;;;22.87;100.00;96662.88;5016059;28;20400;-68
2021/08/06 03:25:22;;;;;;;1.83;1.70;;;;;;;22.88;100.00;96665.47;5026340;28;20289;-68
2021/08/06 03:27:49;;;;;;;2.17;1.70;;;;;;;22.80;100.00;96664.50;5026350;28;20665;-68
2021/08/06 03:30:16;;;;;;;1.73;1.50;;;;;;;22.34;100.00;96575.19;5014833;28;20202;-68
2021/08/06 03:32:43;;;;;;;1.60;1.50;;;;;;;22.63;100.00;96625.06;5012576;28;20653;-69
2021/08/06 03:35:10;;;;;;;2.30;1.60;;;;;;;22.81;100.00;96650.88;5013400;28;20642;-68
2021/08/06 03:37:37;;;;;;;1.73;1.63;;;;;;;22.89;100.00;96669.72;5023084;28;20304;-66
2021/08/06 03:40:04;;;;;;;2.07;1.87;;;;;;;22.60;100.00;96613.94;5025820;28;20205;-68
2021/08/06 03:42:31;;;;;;;1.70;1.60;;;;;;;22.91;100.00;96675.75;5023399;28;20222;-68
2021/08/06 03:44:57;;;;;;;1.73;1.63;;;;;;;22.95;100.00;96687.72;5001858;28;20267;-66
2021/08/06 03:47:24;;;;;;;1.70;1.60;;;;;;;22.91;100.00;96677.44;5022354;28;20304;-67
2021/08/06 03:49:50;;;;;;;2.47;1.40;;;;;;;22.69;100.00;96643.06;5029696;28;20953;-67
2021/08/06 03:52:17;;;;;;;1.40;1.30;;;;;;;22.92;100.00;96690.25;5025250;28;20236;-67
2021/08/06 03:54:44;;;;;;;1.90;1.80;;;;;;;22.90;100.00;96697.09;5013611;28;20248;-67
2021/08/06 03:57:11;;;;;;;1.77;1.57;;;;;;;22.79;100.00;96683.28;5027567;28;20225;-68
2021/08/06 03:59:37;;;;;;;1.57;1.47;;;;;;;22.88;100.00;96690.22;5022617;28;20225;-67
2021/08/06 04:02:04;;;;;;;2.00;1.80;;;;;;;22.77;100.00;96679.00;5025538;28;20683;-67
2021/08/06 04:04:30;;;;;;;1.80;1.70;;;;;;;22.80;100.00;96689.28;5015818;28;20202;-67
2021/08/06 04:06:57;;;;;;;1.70;1.60;;;;;;;22.72;100.00;96685.78;5025855;28;20218;-69
2021/08/06 04:09:24;;;;;;;1.83;1.67;;;;;;;22.53;100.00;96660.81;5017054;28;20292;-67
2021/08/06 04:11:50;;;;;;;1.70;1.60;;;;;;;22.83;100.00;96704.69;5003189;28;20229;-67
2021/08/06 04:14:17;;;;;;;1.57;1.47;;;;;;;22.61;100.00;96656.59;5026437;28;20226;-67
2021/08/06 04:16:44;;;;;;;1.93;1.57;;;;;;;22.85;100.00;96701.28;4990754;28;20312;-67
2021/08/06 04:19:11;;;;;;;1.70;1.50;;;;;;;22.75;100.00;96681.56;5015618;28;20261;-67
2021/08/06 04:21:37;;;;;;;1.53;1.43;;;;;;;22.44;100.00;96617.13;5027476;28;20737;-67
2021/08/06 04:24:04;;;;;;;1.50;1.40;;;;;;;22.87;100.00;96686.81;5018813;28;20239;-67
2021/08/06 04:26:31;;;;;;;1.60;1.50;;;;;;;22.47;100.00;96618.00;5023664;28;20240;-67
2021/08/06 04:28:57;;;;;;;1.43;1.33;;;;;;;22.49;100.00;96618.03;5018007;28;20300;-66
2021/08/06 04:31:24;;;;;;;1.80;1.70;;;;;;;22.65;100.00;96645.56;5018480;28;20240;-67
2021/08/06 04:33:50;;;;;;;2.17;1.80;;;;;;;22.59;100.00;96637.81;5029504;28;20225;-67
2021/08/06 04:36:17;;;;;;;1.80;1.70;;;;;;;22.92;100.00;96679.19;5029794;28;20253;-67
2021/08/06 04:38:44;;;;;;;1.97;1.83;;;;;;;22.92;100.00;96680.00;5020129;28;20316;-67
2021/08/06 04:41:10;;;;;;;3.13;1.50;;;;;;;22.93;100.00;96676.63;5030029;28;20205;-67
2021/08/06 04:43:37;;;;;;;3.03;1.60;;;;;;;22.93;100.00;96683.44;5014573;28;20202;-65
2021/08/06 04:46:03;;;;;;;6.90;1.90;;;;;;;22.92;100.00;96677.44;5027327;28;20221;-66
2021/08/06 04:48:30;;;;;;;3.40;1.60;;;;;;;22.22;100.00;96551.16;5029908;28;20247;-65
2021/08/06 04:50:57;;;;;;;4.93;1.97;;;;;;;22.89;99.96;96674.03;5030677;28;20197;-66
2021/08/06 04:53:23;;;;;;;4.00;1.80;;;;;;;22.00;99.27;96528.75;5029920;28;20202;-67
2021/08/06 04:55:50;;;;;;;3.20;1.63;;;;;;;22.86;99.10;96695.31;5026457;28;20707;-67
2021/08/06 04:58:16;;;;;;;3.30;1.67;;;;;;;22.68;98.38;96650.72;5029866;28;20241;-66
2021/08/06 05:00:43;;;;;;;2.60;1.60;;;;;;;22.82;98.50;96677.34;5028685;28;20197;-66
2021/08/06 05:03:10;;;;;;;2.57;1.80;;;;;;;22.64;98.52;96646.41;5029670;28;20198;-66
2021/08/06 05:05:36;;;;;;;3.13;1.67;;;;;;;22.70;98.48;96660.13;5023032;28;20684;-65
2021/08/06 05:08:03;;;;;;;1.93;1.73;;;;;;;22.68;98.76;96655.84;4996343;28;20221;-67
2021/08/06 05:10:30;;;;;;;6.53;1.77;;;;;;;22.79;99.41;96674.75;5029123;28;20205;-65
2021/08/06 05:12:56;;;;;;;2.30;1.57;;;;;;;22.80;100.00;96669.63;5023992;28;20286;-66
2021/08/06 05:15:23;;;;;;;2.20;1.60;;;;;;;22.81;100.00;96675.63;5027907;28;20244;-67
2021/08/06 05:17:50;;;;;;;3.93;1.47;;;;;;;22.83;100.00;96674.78;5012348;28;20305;-66
2021/08/06 05:20:17;;;;;;;1.90;1.60;;;;;;;22.77;100.00;96666.19;5028287;28;20224;-67
2021/08/06 05:22:43;;;;;;;3.13;1.40;;;;;;;22.87;100.00;96678.25;5002572;28;20661;-66
2021/08/06 05:25:10;;;;;;;4.50;1.60;;;;;;;22.57;100.00;96627.56;5025424;28;20229;-66
2021/08/06 05:27:37;;;;;;;4.93;1.50;;;;;;;22.81;100.00;96667.94;5015498;28;20217;-64
2021/08/06 05:30:04;;;;;;;2.83;1.50;;;;;;;22.86;100.00;96672.25;5017456;28;20248;-67
2021/08/06 05:32:31;;;;;;;7.10;1.57;;;;;;;22.82;100.00;96669.66;5029696;28;21559;-66
2021/08/06 05:34:57;;;;;;;5.83;1.50;;;;;;;22.78;100.00;96663.66;5022147;28;20301;-67
2021/08/06 05:37:24;;;;;;;2.87;1.60;;;;;;;22.84;100.00;96660.28;5014185;28;20256;-66
2021/08/06 05:39:50;;;;;;;1.83;1.60;;;;;;;22.93;100.00;96674.06;5022351;28;20237;-65
2021/08/06 05:42:19;;;;;;;2.20;1.50;;;;;;;22.95;100.00;96676.66;5011559;28;20232;-67
2021/08/06 05:44:46;;;;;;;1.90;1.77;;;;;;;22.81;100.00;96655.13;5029064;28;20293;-66
2021/08/06 05:47:12;;;;;;;1.60;1.50;;;;;;;22.84;100.00;96663.72;5002495;28;20218;-67
2021/08/06 05:49:39;;;;;;;1.60;1.40;;;;;;;22.92;100.00;96674.88;5027047;28;20729;-65
2021/08/06 05:52:05;;;;;;;3.30;1.60;;;;;;;22.90;100.00;96680.84;5030734;28;20208;-66
2021/08/06 05:54:32;;;;;;;2.37;1.60;;;;;;;22.84;100.00;96663.72;5018060;28;20288;-66
2021/08/06 05:56:59;;;;;;;1.73;1.60;;;;;;;22.84;100.00;96667.97;5027245;28;20261;-66
2021/08/06 05:59:25;;;;;;;2.87;1.50;;;;;;;22.86;100.00;96672.25;5031302;28;20233;-67
2021/08/06 06:01:52;;;;;;;1.90;1.60;;;;;;;22.85;100.00;96672.25;5032624;28;20236;-67
2021/08/06 06:04:18;;;;;;;1.53;1.43;;;;;;;22.75;100.00;96658.50;5032316;28;20201;-67
2021/08/06 06:06:45;;;;;;;4.23;1.80;;;;;;;22.84;100.00;96673.09;5032626;28;20217;-67
2021/08/06 06:09:11;;;;;;;5.13;1.60;;;;;;;22.83;100.00;96668.81;5003865;28;20664;-67
2021/08/06 06:11:38;;;;;;;1.60;1.50;;;;;;;22.84;100.00;96671.41;5026650;28;20312;-65
2021/08/06 06:14:05;;;;;;;1.63;1.53;;;;;;;22.85;100.00;96668.00;5029459;28;20274;-67
2021/08/06 06:16:31;;;;;;;2.77;1.53;;;;;;;22.87;100.00;96673.13;5023606;28;20230;-67
2021/08/06 06:18:58;;;;;;;2.27;1.97;;;;;;;22.87;100.00;96663.75;5026194;28;20245;-67
2021/08/06 06:21:24;;;;;;;1.90;1.70;;;;;;;22.62;100.00;96618.22;5031391;28;20641;-66
2021/08/06 06:23:51;;;;;;;1.63;1.37;;;;;;;22.85;100.00;96657.75;5013957;28;20202;-67
2021/08/06 06:26:18;;;;;;;3.00;1.57;;;;;;;22.91;100.00;96665.50;4997721;28;20643;-67
2021/08/06 06:28:44;;;;;;;2.50;1.60;;;;;;;22.93;100.00;96670.63;5026907;28;20214;-67
2021/08/06 06:31:11;;;;;;;1.90;1.50;;;;;;;22.93;100.00;96670.63;5028842;28;20292;-67
2021/08/06 06:33:38;;;;;;;1.70;1.60;;;;;;;22.94;100.00;96675.78;5022900;28;20647;-64
2021/08/06 06:36:04;;;;;;;1.60;1.40;;;;;;;22.94;100.00;96675.78;5016022;28;20241;-66
2021/08/06 06:38:31;;;;;;;1.70;1.50;;;;;;;22.97;100.00;96677.50;5027358;28;20273;-67
2021/08/06 06:40:57;;;;;;;1.63;1.30;;;;;;;22.92;100.00;96666.38;5023983;28;20209;-67
2021/08/06 06:43:24;;;;;;;2.07;1.50;;;;;;;22.95;100.00;96679.22;5027565;28;20201;-66
2021/08/06 06:45:51;;;;;;;1.60;1.50;;;;;;;22.95;100.00;96684.34;5031632;28;20910;-67
2021/08/06 06:48:17;;;;;;;2.03;1.50;;;;;;;22.86;100.00;96669.69;5028834;28;20309;-67
2021/08/06 06:50:44;;;;;;;1.83;1.70;;;;;;;22.93;100.00;96689.44;5015667;28;20289;-66
2021/08/06 06:53:10;;;;;;;1.87;1.30;;;;;;;22.91;100.00;96691.13;5018401;28;20292;-66
2021/08/06 06:55:37;;;;;;;1.80;1.70;;;;;;;22.89;100.00;96685.09;5026179;28;20198;-67
2021/08/06 06:58:04;;;;;;;3.67;2.00;;;;;;;22.87;100.00;96686.81;5022003;28;20316;-66
2021/08/06 07:00:31;;;;;;;1.50;1.40;;;;;;;22.87;100.00;96691.94;5027655;28;20742;-67
2021/08/06 07:02:59;;;;;;;1.57;1.47;;;;;;;22.78;100.00;96681.59;5013937;28;20230;-66
2021/08/06 07:05:26;;;;;;;1.47;1.37;;;;;;;22.85;100.00;96695.31;5006672;28;20209;-66
2021/08/06 07:07:53;;;;;;;1.50;1.40;;;;;;;22.83;100.00;96694.44;5010530;28;20242;-64
2021/08/06 07:10:20;;;;;;;1.57;1.47;;;;;;;22.76;100.00;96677.28;5013680;28;20255;-67
2021/08/06 07:12:46;;;;;;;1.40;1.30;;;;;;;22.80;100.00;96694.41;5025307;28;20245;-67
2021/08/06 07:15:14;;;;;;;1.50;1.40;;;;;;;22.89;100.00;96708.16;5027979;28;20233;-66
2021/08/06 07:17:41;;;;;;;1.63;1.50;;;;;;;22.91;100.00;96718.44;5026624;28;20309;-66
2021/08/06 07:20:09;;;;;;;1.50;1.40;;;;;;;22.83;100.00;96715.78;5017499;28;20225;-67
2021/08/06 07:22:35;;;;;;;1.40;1.30;;;;;;;22.90;100.00;96732.09;5015764;28;20666;-67
2021/08/06 07:25:03;;;;;;;1.90;1.67;;;;;;;22.95;100.00;96748.38;5014659;28;20626;-66
2021/08/06 07:27:29;;;;;;;1.60;1.43;;;;;;;22.91;100.00;96746.59;5028361;28;20249;-67
2021/08/06 07:29:56;;;;;;;2.77;1.23;;;;;;;22.96;100.00;96761.22;5020191;28;20225;-66
2021/08/06 07:32:22;;;;;;;1.57;1.47;;;;;;;22.88;100.00;96747.44;5023912;28;20328;-67
2021/08/06 07:34:54;;;;;;;2.50;1.47;;;;;;;22.66;100.00;96721.56;5025608;28;20209;-67
2021/08/06 07:37:21;;;;;;;1.70;1.60;;;;;;;22.62;100.00;96717.25;5000435;28;20280;-67
2021/08/06 07:39:49;;;;;;;1.50;1.40;;;;;;;22.97;100.00;96788.56;5016105;28;20663;-66
2021/08/06 07:42:16;;;;;;;1.60;1.50;;;;;;;22.97;100.00;96798.81;5026120;28;20660;-67
2021/08/06 07:44:42;;;;;;;1.60;1.50;;;;;;;22.96;100.00;96797.09;5017872;28;20666;-66
2021/08/06 07:47:09;;;;;;;1.60;1.50;;;;;;;22.94;100.00;96793.66;5017762;28;20204;-66
2021/08/06 07:49:36;;;;;;;1.77;1.23;;;;;;;22.91;100.00;96793.59;5023640;28;20232;-67
2021/08/06 07:52:02;;;;;;;1.40;1.30;;;;;;;22.91;100.00;96798.72;5017965;28;20205;-67
2021/08/06 07:54:29;;;;;;;1.40;1.30;;;;;;;22.90;100.00;96807.28;5025300;28;20209;-67
2021/08/06 07:56:56;;;;;;;2.60;1.50;;;;;;;22.89;100.00;96800.41;5007882;28;20246;-66
2021/08/06 07:59:23;;;;;;;2.90;1.50;;;;;;;22.88;100.00;96795.25;5010141;28;20367;-66
2021/08/06 08:01:49;;;;;;;1.50;1.40;;;;;;;22.88;100.00;96792.69;5024577;28;20248;-67
2021/08/06 08:04:16;;;;;;;1.70;1.40;;;;;;;22.83;100.00;96784.94;5028056;28;20212;-67
2021/08/06 08:06:43;;;;;;;1.30;1.20;;;;;;;22.89;100.00;96787.59;5025119;28;20229;-67
2021/08/06 08:09:10;;;;;;;2.37;1.40;;;;;;;22.87;100.00;96767.94;5013110;28;20308;-67
2021/08/06 08:11:37;;;;;;;3.13;1.47;;;;;;;22.88;100.00;96785.88;5022933;28;20228;-67
2021/08/06 08:14:03;;;;;;;1.40;1.30;;;;;;;22.91;100.00;96778.22;5016401;28;20301;-67
2021/08/06 08:16:30;;;;;;;1.77;1.40;;;;;;;22.92;100.00;96768.84;5007097;28;20209;-67
2021/08/06 08:18:57;;;;;;;1.50;1.40;;;;;;;22.94;100.00;96760.34;5025521;28;20283;-65
2021/08/06 08:21:23;;;;;;;1.37;1.27;;;;;;;22.94;100.00;96767.16;5029528;28;20252;-66
2021/08/06 08:23:50;;;;;;;2.50;1.57;;;;;;;22.95;100.00;96754.34;5018393;28;20225;-67
2021/08/06 08:26:17;;;;;;;2.20;1.50;;;;;;;22.97;100.00;96760.38;5024800;28;20623;-67
2021/08/06 08:28:43;;;;;;;1.60;1.50;;;;;;;22.97;100.00;96760.38;5020496;28;20244;-66
2021/08/06 08:31:10;;;;;;;1.80;1.70;;;;;;;22.98;100.00;96762.06;5026422;28;20238;-67
2021/08/06 08:33:36;;;;;;;1.83;1.50;;;;;;;23.00;100.00;96764.66;5026531;28;20247;-67
2021/08/06 08:36:04;;;;;;;1.93;1.60;;;;;;;23.00;100.00;96769.78;5026781;28;20259;-67
2021/08/06 08:38:32;;;;;;;2.20;1.70;;;;;;;22.99;100.00;96780.88;5052859;23;20766;-66
2021/08/06 08:40:59;;;;;;;1.80;1.50;;;;;;;22.52;100.00;96703.47;5001794;28;20284;-67
2021/08/06 08:43:25;;;;;;;1.77;1.67;;;;;;;22.96;100.00;96778.28;4997891;28;20234;-67
2021/08/06 08:45:56;;;;;;;2.33;1.50;;;;;;;22.96;100.00;96768.03;5008640;28;20309;-66
2021/08/06 08:48:23;;;;;;;1.60;1.50;;;;;;;22.84;100.00;96752.50;4999092;28;20643;-67
2021/08/06 08:50:52;;;;;;;1.70;1.60;;;;;;;22.75;100.00;96740.47;4998972;28;20282;-67
2021/08/06 08:53:18;;;;;;;1.67;1.57;;;;;;;22.73;100.00;96739.59;5009518;28;20324;-67
2021/08/06 08:55:45;;;;;;;2.20;1.60;;;;;;;22.90;100.00;96767.97;4998757;28;20678;-66
2021/08/06 08:58:12;;;;;;;1.70;1.40;;;;;;;22.88;100.00;96769.63;5008771;28;20265;-66
2021/08/06 09:00:40;;;;;;;1.77;1.60;;;;;;;22.82;100.00;96761.88;5008040;28;20229;-66
2021/08/06 09:03:06;;;;;;;1.80;1.70;;;;;;;22.89;100.00;96769.66;5009368;28;20220;-66
2021/08/06 09:05:33;;;;;;;1.60;1.50;;;;;;;22.89;100.00;96769.66;5008936;28;20236;-66
2021/08/06 09:08:00;;;;;;;3.30;1.50;;;;;;;22.90;100.00;96767.97;5003089;28;20651;-66
2021/08/06 09:10:28;;;;;;;1.63;1.53;;;;;;;22.92;100.00;96768.84;4986104;28;20206;-66
2021/08/06 09:12:59;;;;;;;1.67;1.57;;;;;;;22.92;100.00;96767.13;5007228;28;20248;-67
2021/08/06 09:15:46;;;;;;;1.60;1.50;;;;;;;22.93;100.00;96763.75;5008853;28;20198;-66
2021/08/06 09:18:28;;;;;;;2.10;1.47;;;;;;;22.96;100.00;96765.47;5001180;28;20287;-66
2021/08/06 09:21:14;;;;;;;1.60;1.50;;;;;;;22.43;100.00;96674.28;5008717;28;20240;-66
2021/08/06 09:23:53;;;;;;;1.70;1.60;;;;;;;22.97;100.00;96772.31;5009373;28;20234;-65
2021/08/06 09:26:26;;;;;;;1.50;1.40;;;;;;;22.98;100.00;96766.38;5010011;28;20194;-67
2021/08/06 09:29:29;;;;;;;1.60;1.50;;;;;;;22.99;100.00;96768.06;5013029;28;20291;-66
2021/08/06 09:31:57;;;;;;;1.50;1.40;;;;;;;23.00;100.00;96774.91;5010318;28;20248;-66
2021/08/06 09:34:28;;;;;;;1.80;1.50;;;;;;;23.00;100.00;96774.91;5012271;28;20691;-66
2021/08/06 09:37:01;;;;;;;3.10;1.50;;;;;;;22.99;100.00;96770.63;5004780;28;20289;-66
2021/08/06 09:39:48;;;;;;;1.60;1.50;;;;;;;22.97;100.00;96783.44;5011215;28;20218;-66
2021/08/06 09:42:18;;;;;;;1.70;1.60;;;;;;;22.95;100.00;96785.09;5012266;28;20233;-67
2021/08/06 09:44:58;;;;;;;2.20;1.70;;;;;;;22.94;100.00;96785.97;5010344;28;20209;-66
2021/08/06 09:47:25;;;;;;;1.50;1.40;;;;;;;22.92;100.00;96785.06;5002367;28;20286;-66
2021/08/06 09:49:54;;;;;;;1.77;1.67;;;;;;;22.91;100.00;96788.47;5011438;28;20997;-66
2021/08/06 09:52:29;;;;;;;1.50;1.40;;;;;;;22.90;100.00;96771.41;5012499;28;20234;-66
2021/08/06 09:55:31;;;;;;;1.50;1.40;;;;;;;22.90;100.00;96765.41;5001998;28;20198;-65
2021/08/06 09:57:59;;;;;;;1.30;1.20;;;;;;;22.89;100.00;96767.09;5012242;28;20299;-65
2021/08/06 10:00:26;;;;;;;1.70;1.60;;;;;;;22.88;100.00;96765.38;5011923;28;20226;-66
2021/08/06 10:02:53;;;;;;;1.57;1.47;;;;;;;22.89;100.00;96764.53;5012287;28;20249;-66
2021/08/06 10:05:24;;;;;;;1.50;1.40;;;;;;;22.90;100.00;96758.59;5011650;28;20241;-65
2021/08/06 10:07:53;;;;;;;1.40;1.30;;;;;;;21.97;100.00;96603.75;5010766;28;20219;-64
2021/08/06 10:10:24;;;;;;;1.60;1.50;;;;;;;22.92;100.00;96751.75;5011245;28;20202;-65
2021/08/06 10:12:51;;;;;;;1.50;1.40;;;;;;;22.93;100.00;96758.63;5011902;28;20225;-65
2021/08/06 10:15:18;;;;;;;4.40;1.80;;;;;;;22.94;100.00;96756.91;5009373;28;20862;-63
2021/08/06 10:17:45;;;;;;;1.77;1.47;;;;;;;22.95;100.00;96762.03;4996997;28;20249;-66
2021/08/06 10:20:13;;;;;;;1.50;1.40;;;;;;;22.96;100.00;96757.78;5011925;28;20297;-65
2021/08/06 10:22:40;;;;;;;1.40;1.30;;;;;;;22.98;100.00;96753.56;5012059;28;20202;-65
2021/08/06 10:25:08;;;;;;;1.50;1.40;;;;;;;22.99;100.00;96750.13;5012203;28;20293;-65
2021/08/06 10:27:35;;;;;;;2.03;1.63;;;;;;;22.95;100.00;96741.53;5012197;28;20226;-66
2021/08/06 10:30:06;;;;;;;1.80;1.40;;;;;;;23.00;100.00;96744.16;4981616;28;20210;-65
2021/08/06 10:32:33;;;;;;;2.03;1.60;;;;;;;22.98;100.00;96740.75;5010016;28;20590;-65
2021/08/06 10:35:05;;;;;;;1.80;1.60;;;;;;;22.99;100.00;96737.31;5007601;28;20233;-66
2021/08/06 10:38:01;;;;;;;1.83;1.37;;;;;;;22.98;100.00;96741.56;5010995;28;20470;-65
2021/08/06 10:40:34;;;;;;;1.43;1.33;;;;;;;22.97;100.00;96739.88;5009546;28;20280;-65
2021/08/06 10:43:09;;;;;;;2.27;1.50;;;;;;;22.94;100.00;96729.59;5010565;28;20284;-65
2021/08/06 10:45:45;;;;;;;1.27;1.20;;;;;;;22.93;100.00;96730.44;5008726;28;20198;-65
2021/08/06 10:48:30;;;;;;;1.83;1.50;;;;;;;22.91;100.00;96718.44;5011889;28;20750;-65
2021/08/06 10:51:15;;;;;;;3.23;1.73;;;;;;;22.90;100.00;96716.72;5010920;28;20656;-66
2021/08/06 10:53:48;;;;;;;1.70;1.60;;;;;;;22.89;100.00;96713.28;5010614;28;20672;-62
2021/08/06 10:56:28;;;;;;;1.83;1.70;;;;;;;22.88;100.00;96705.59;5011674;28;20202;-66
2021/08/06 10:59:13;;;;;;;2.70;1.67;;;;;;;22.88;100.00;96710.72;4996573;28;20269;-66
2021/08/06 11:01:45;;;;;;;1.73;1.63;;;;;;;22.88;100.00;96716.69;5010954;28;20276;-65
2021/08/06 11:04:14;;;;;;;1.70;1.50;;;;;;;22.89;100.00;96703.03;5011129;28;20206;-66
2021/08/06 11:06:42;;;;;;;1.70;1.60;;;;;;;22.91;100.00;96705.63;5010600;28;20285;-66
2021/08/06 11:09:09;;;;;;;2.03;1.77;;;;;;;21.78;100.00;96503.72;5002519;28;20250;-66
2021/08/06 11:11:42;;;;;;;1.80;1.67;;;;;;;22.93;100.00;96701.38;5010578;28;20221;-65
2021/08/06 11:14:16;;;;;;;4.77;1.90;;;;;;;22.94;100.00;96701.41;5011716;28;20284;-65
2021/08/06 11:17:16;;;;;;;1.90;1.80;;;;;;;22.96;100.00;96701.41;5009475;28;20256;-65
2021/08/06 11:19:45;;;;;;;3.10;2.27;;;;;;;22.97;100.00;96706.56;5003601;28;20230;-66
2021/08/06 11:22:27;;;;;;;2.70;2.17;;;;;;;22.98;100.00;96707.44;5010830;28;20242;-65
2021/08/06 11:24:59;;;;;;;5.27;2.70;;;;;;;22.99;100.00;96711.69;5010575;28;20927;-66
2021/08/06 11:27:40;;;;;;;5.57;2.73;;;;;;;22.99;100.00;96699.75;5011307;28;20229;-65
2021/08/06 11:30:19;;;;;;;5.07;2.80;;;;;;;23.01;100.00;96704.91;5005119;28;20268;-65